Time;durP1;ratioP1;P1;durP2;ratioP2;P2;SDS_P1;SDS_P2;PMS_P1;PMS_P2;Temp;Humidity;BMP_temperature;BMP_pressure;BME280_temperature;BME280_humidity;BME280_pressure;Samples;Min_cycle;Max_cycle;Signal;HPM_P1;HPM_P2
2022/04/05 00:01:18;;;;;;;;;;;9.90;99.90;;;;;;5054252;28;19904;-69
2022/04/05 00:03:44;;;;;;;;;;;9.90;99.90;;;;;;5054202;28;19912;-70
2022/04/05 00:06:09;;;;;;;;;;;9.90;99.90;;;;;;5054402;28;19909;-70
2022/04/05 00:08:35;;;;;;;;;;;9.90;99.90;;;;;;5054147;28;19959;-69
2022/04/05 00:11:00;;;;;;;;;;;9.90;99.90;;;;;;5054390;28;20418;-71
2022/04/05 00:13:26;;;;;;;;;;;9.90;99.90;;;;;;5054049;28;19966;-68
2022/04/05 00:15:52;;;;;;;;;;;9.90;99.90;;;;;;5053976;28;20008;-69
2022/04/05 00:18:17;;;;;;;;;;;9.90;99.90;;;;;;5053978;28;19912;-69
2022/04/05 00:20:43;;;;;;;;;;;10.00;99.90;;;;;;5053943;28;19928;-70
2022/04/05 00:23:08;;;;;;;;;;;9.90;99.90;;;;;;5053747;28;19924;-71
2022/04/05 00:25:34;;;;;;;;;;;9.90;99.90;;;;;;5054112;28;19909;-69
2022/04/05 00:27:59;;;;;;;;;;;9.90;99.90;;;;;;5053870;28;20363;-70
2022/04/05 00:30:25;;;;;;;;;;;9.90;99.90;;;;;;5053808;28;19904;-70
2022/04/05 00:32:51;;;;;;;;;;;9.90;99.90;;;;;;5054021;28;20251;-70
2022/04/05 00:35:16;;;;;;;;;;;9.90;99.90;;;;;;5053754;28;19908;-70
2022/04/05 00:37:42;;;;;;;;;;;9.90;99.90;;;;;;5053697;28;19908;-70
2022/04/05 00:40:08;;;;;;;;;;;10.00;99.90;;;;;;5053943;28;19905;-69
2022/04/05 00:42:34;;;;;;;;;;;9.90;99.90;;;;;;5053565;28;19931;-70
2022/04/05 00:44:59;;;;;;;;;;;9.90;99.90;;;;;;5053947;28;19905;-68
2022/04/05 00:47:25;;;;;;;;;;;10.00;99.90;;;;;;5053536;28;19963;-70
2022/04/05 00:49:52;;;;;;;;;;;10.00;99.90;;;;;;5035706;28;19909;-69
2022/04/05 00:52:19;;;;;;;;;;;10.00;99.90;;;;;;5035747;28;19905;-71
2022/04/05 00:54:45;;;;;;;;;;;10.00;99.90;;;;;;5053502;28;20361;-70
2022/04/05 00:57:12;;;;;;;;;;;10.00;99.90;;;;;;5053468;28;19905;-70
2022/04/05 00:59:41;;;;;;;;;;;10.00;99.90;;;;;;5054056;28;19909;-71
2022/04/05 01:02:07;;;;;;;;;;;10.00;99.90;;;;;;5053429;28;19905;-69
2022/04/05 01:04:34;;;;;;;;;;;10.00;99.90;;;;;;5035491;28;19905;-71
2022/04/05 01:07:02;;;;;;;;;;;10.00;99.90;;;;;;5053331;28;20061;-69
2022/04/05 01:09:28;;;;;;;;;;;10.00;99.90;;;;;;5053377;28;20370;-70
2022/04/05 01:11:53;;;;;;;;;;;10.00;99.90;;;;;;5054729;28;19904;-69
2022/04/05 01:14:19;;;;;;;;;;;10.00;99.90;;;;;;5057378;28;19905;-71
2022/04/05 01:16:44;;;;;;;;;;;10.00;99.90;;;;;;5057380;28;19905;-70
2022/04/05 01:19:10;;;;;;;;;;;10.00;99.90;;;;;;5057635;28;20268;-71
2022/04/05 01:21:37;;;;;;;;;;;10.00;99.90;;;;;;5057266;28;19914;-70
2022/04/05 01:24:13;;;;;;;;;;;10.00;99.90;;;;;;5057086;28;19917;-71
2022/04/05 01:26:39;;;;;;;;;;;10.00;99.90;;;;;;5057168;28;19959;-71
2022/04/05 01:29:04;;;;;;;;;;;10.10;99.90;;;;;;5057185;28;19936;-69
2022/04/05 01:31:30;;;;;;;;;;;10.00;99.90;;;;;;5057406;28;20025;-71
2022/04/05 01:33:56;;;;;;;;;;;10.00;99.90;;;;;;5057338;28;19912;-69
2022/04/05 01:36:22;;;;;;;;;;;10.00;99.90;;;;;;5057022;28;19916;-70
2022/04/05 01:38:48;;;;;;;;;;;10.10;99.90;;;;;;5057277;28;20358;-71
2022/04/05 01:41:13;;;;;;;;;;;10.10;99.90;;;;;;5056913;28;19904;-69
2022/04/05 01:43:40;;;;;;;;;;;10.00;99.90;;;;;;5056903;28;19905;-70
2022/04/05 01:46:06;;;;;;;;;;;10.10;99.90;;;;;;5038890;28;19909;-69
2022/04/05 01:48:31;;;;;;;;;;;10.00;99.90;;;;;;5057089;28;19916;-69
2022/04/05 01:50:58;;;;;;;;;;;10.00;99.90;;;;;;5056770;28;20417;-69
2022/04/05 01:53:24;;;;;;;;;;;10.00;99.90;;;;;;5057081;28;19947;-71
2022/04/05 01:55:49;;;;;;;;;;;10.10;99.90;;;;;;5056651;28;19905;-70
2022/04/05 01:58:14;;;;;;;;;;;10.00;99.90;;;;;;5056638;28;19940;-71
2022/04/05 02:00:40;;;;;;;;;;;10.00;99.90;;;;;;5056882;28;20476;-70
2022/04/05 02:03:05;;;;;;;;;;;10.00;99.90;;;;;;5056542;28;19905;-69
2022/04/05 02:05:31;;;;;;;;;;;10.10;99.90;;;;;;5056751;28;19908;-71
2022/04/05 02:07:56;;;;;;;;;;;10.00;99.90;;;;;;5056489;28;19951;-70
2022/04/05 02:10:22;;;;;;;;;;;10.00;99.90;;;;;;5038534;28;19959;-71
2022/04/05 02:12:47;;;;;;;;;;;10.00;99.90;;;;;;5056403;28;20351;-71
2022/04/05 02:15:13;;;;;;;;;;;10.00;99.90;;;;;;5056374;28;19905;-70
2022/04/05 02:17:39;;;;;;;;;;;10.10;99.90;;;;;;5056270;28;19912;-69
2022/04/05 02:20:05;;;;;;;;;;;10.10;99.90;;;;;;5056502;28;19970;-70
2022/04/05 02:22:31;;;;;;;;;;;10.10;99.90;;;;;;5055821;28;19904;-70
2022/04/05 02:24:57;;;;;;;;;;;10.10;99.90;;;;;;5056437;28;19931;-72
2022/04/05 02:27:22;;;;;;;;;;;10.10;99.90;;;;;;5056051;28;19917;-71
2022/04/05 02:29:48;;;;;;;;;;;10.10;99.90;;;;;;5056306;28;20282;-68
2022/04/05 02:32:13;;;;;;;;;;;10.10;99.90;;;;;;5056001;28;19904;-72
2022/04/05 02:34:39;;;;;;;;;;;10.10;99.90;;;;;;5055964;28;19905;-70
2022/04/05 02:37:04;;;;;;;;;;;10.10;99.90;;;;;;5056210;28;19928;-68
2022/04/05 02:39:30;;;;;;;;;;;10.10;99.90;;;;;;5055909;28;20436;-70
2022/04/05 02:41:55;;;;;;;;;;;10.10;99.90;;;;;;5056143;28;19959;-72
2022/04/05 02:44:21;;;;;;;;;;;10.10;99.90;;;;;;5055740;28;20290;-71
2022/04/05 02:46:46;;;;;;;;;;;10.20;99.90;;;;;;5055922;28;19915;-69
2022/04/05 02:49:13;;;;;;;;;;;10.20;99.90;;;;;;5055648;28;19909;-69
2022/04/05 02:51:39;;;;;;;;;;;10.20;99.90;;;;;;5055625;28;19995;-70
2022/04/05 02:54:04;;;;;;;;;;;10.20;99.90;;;;;;5055837;28;19947;-69
2022/04/05 02:56:30;;;;;;;;;;;10.10;99.90;;;;;;5055537;28;19999;-69
2022/04/05 02:58:55;;;;;;;;;;;10.20;99.90;;;;;;5055811;28;20265;-69
2022/04/05 03:01:21;;;;;;;;;;;10.20;99.90;;;;;;5055491;28;20355;-70
2022/04/05 03:03:47;;;;;;;;;;;10.20;99.90;;;;;;5056017;28;19904;-69
2022/04/05 03:06:14;;;;;;;;;;;10.20;99.90;;;;;;5055337;28;20385;-70
2022/04/05 03:08:40;;;;;;;;;;;10.20;99.90;;;;;;5055949;28;19927;-68
2022/04/05 03:11:06;;;;;;;;;;;10.20;99.90;;;;;;5055336;28;20290;-70
2022/04/05 03:13:32;;;;;;;;;;;10.20;99.90;;;;;;5055232;28;19954;-70
2022/04/05 03:15:58;;;;;;;;;;;10.20;99.90;;;;;;5055669;28;20342;-71
2022/04/05 03:18:24;;;;;;;;;;;10.20;99.90;;;;;;5055130;28;19927;-69
2022/04/05 03:20:50;;;;;;;;;;;10.20;99.90;;;;;;5055089;28;19905;-70
2022/04/05 03:23:15;;;;;;;;;;;10.20;99.90;;;;;;5055243;28;20278;-70
2022/04/05 03:25:41;;;;;;;;;;;10.20;99.90;;;;;;5054940;28;19905;-70
2022/04/05 03:28:07;;;;;;;;;;;10.20;99.90;;;;;;5055239;28;19912;-67
2022/04/05 03:30:33;;;;;;;;;;;10.20;99.90;;;;;;5037047;28;19915;-70
2022/04/05 03:32:58;;;;;;;;;;;10.20;99.90;;;;;;5055192;28;19904;-70
2022/04/05 03:35:24;;;;;;;;;;;10.10;99.90;;;;;;5054174;28;19909;-69
2022/04/05 03:37:49;;;;;;;;;;;10.10;99.90;;;;;;5054771;28;19904;-71
2022/04/05 03:40:15;;;;;;;;;;;10.10;99.90;;;;;;5054729;28;19908;-68
2022/04/05 03:42:40;;;;;;;;;;;10.10;99.90;;;;;;5054959;28;19970;-70
2022/04/05 03:45:06;;;;;;;;;;;10.10;99.90;;;;;;5054570;28;20286;-69
2022/04/05 03:47:32;;;;;;;;;;;10.10;99.90;;;;;;5054793;28;19928;-71
2022/04/05 03:49:58;;;;;;;;;;;10.10;99.90;;;;;;5054508;28;20427;-71
2022/04/05 03:52:23;;;;;;;;;;;10.10;99.90;;;;;;5054751;28;19912;-69
2022/04/05 03:54:49;;;;;;;;;;;10.10;99.90;;;;;;5054424;28;19912;-72
2022/04/05 03:57:15;;;;;;;;;;;10.10;99.90;;;;;;5054931;28;19904;-68
2022/04/05 03:59:40;;;;;;;;;;;10.10;99.90;;;;;;5054309;28;19911;-69
2022/04/05 04:02:06;;;;;;;;;;;10.10;99.90;;;;;;5054570;28;19968;-69
2022/04/05 04:04:31;;;;;;;;;;;10.10;99.90;;;;;;5054297;28;19995;-69
2022/04/05 04:06:57;;;;;;;;;;;10.10;99.90;;;;;;5054135;28;19920;-70
2022/04/05 04:09:23;;;;;;;;;;;10.10;99.90;;;;;;5054476;28;20282;-69
2022/04/05 04:11:49;;;;;;;;;;;10.10;99.90;;;;;;5054123;28;19904;-72
2022/04/05 04:14:15;;;;;;;;;;;10.10;99.90;;;;;;5054304;28;19905;-70
2022/04/05 04:16:40;;;;;;;;;;;10.10;99.90;;;;;;5054071;28;19995;-69
2022/04/05 04:19:06;;;;;;;;;;;10.10;99.90;;;;;;5054577;28;19905;-70
2022/04/05 04:21:31;;;;;;;;;;;10.10;99.90;;;;;;5053861;28;20387;-68
2022/04/05 04:23:57;;;;;;;;;;;10.10;99.90;;;;;;5053896;28;19927;-69
2022/04/05 04:26:22;;;;;;;;;;;10.10;99.90;;;;;;5053806;28;19915;-70
2022/04/05 04:28:50;;;;;;;;;;;10.00;99.90;;;;;;5054447;28;20283;-68
2022/04/05 04:31:16;;;;;;;;;;;10.00;99.90;;;;;;5035956;28;19912;-71
2022/04/05 04:33:41;;;;;;;;;;;10.00;99.90;;;;;;5054083;28;20359;-70
2022/04/05 04:36:07;;;;;;;;;;;10.00;99.90;;;;;;5054040;28;19931;-69
2022/04/05 04:38:32;;;;;;;;;;;10.00;99.90;;;;;;5053782;28;19905;-70
2022/04/05 04:40:59;;;;;;;;;;;10.00;99.90;;;;;;5054011;28;19911;-70
2022/04/05 04:43:27;;;;;;;;;;;10.00;99.90;;;;;;5035619;28;19988;-68
2022/04/05 04:45:53;;;;;;;;;;;10.00;99.90;;;;;;5053002;28;19919;-71
2022/04/05 04:48:19;;;;;;;;;;;10.00;99.90;;;;;;5053264;28;19909;-71
2022/04/05 04:50:46;;;;;;;;;;;10.00;99.90;;;;;;5053566;28;19904;-70
2022/04/05 04:53:12;;;;;;;;;;;10.00;99.90;;;;;;5053556;28;19905;-70
2022/04/05 04:55:37;;;;;;;;;;;10.00;99.90;;;;;;5053774;28;20350;-69
2022/04/05 04:58:03;;;;;;;;;;;10.00;99.90;;;;;;5053472;28;19912;-69
2022/04/05 05:00:28;;;;;;;;;;;10.00;99.90;;;;;;5053757;28;19912;-69
2022/04/05 05:02:54;;;;;;;;;;;10.10;99.90;;;;;;5053441;28;19904;-68
2022/04/05 05:05:19;;;;;;;;;;;10.10;99.90;;;;;;5053427;28;20003;-70
2022/04/05 05:07:47;;;;;;;;;;;10.10;99.90;;;;;;5053351;28;19998;-72
2022/04/05 05:10:13;;;;;;;;;;;10.10;99.90;;;;;;5053378;28;19909;-70
2022/04/05 05:12:40;;;;;;;;;;;10.10;99.90;;;;;;5053363;28;20333;-69
2022/04/05 05:15:10;;;;;;;;;;;10.10;99.90;;;;;;5053270;28;20390;-70
2022/04/05 05:17:36;;;;;;;;;;;10.10;99.90;;;;;;5053304;28;19905;-70
2022/04/05 05:20:02;;;;;;;;;;;10.10;99.90;;;;;;5053817;28;19905;-70
2022/04/05 05:22:28;;;;;;;;;;;10.10;99.90;;;;;;5053376;28;19912;-69
2022/04/05 05:24:53;;;;;;;;;;;10.20;99.90;;;;;;5053492;28;19908;-70
2022/04/05 05:27:19;;;;;;;;;;;10.20;99.90;;;;;;5052908;28;20267;-69
2022/04/05 05:29:44;;;;;;;;;;;10.20;99.90;;;;;;5053226;28;20389;-71
2022/04/05 05:32:10;;;;;;;;;;;10.20;99.90;;;;;;5053742;28;19912;-71
2022/04/05 05:34:35;;;;;;;;;;;10.20;99.90;;;;;;5053152;28;19908;-69
2022/04/05 05:37:02;;;;;;;;;;;10.20;99.90;;;;;;5053439;28;19909;-71
2022/04/05 05:39:28;;;;;;;;;;;10.20;99.90;;;;;;5053169;28;19905;-69
2022/04/05 05:41:54;;;;;;;;;;;10.20;99.90;;;;;;5053067;28;19992;-70
2022/04/05 05:44:20;;;;;;;;;;;10.20;99.90;;;;;;5053067;28;19904;-70
2022/04/05 05:46:46;;;;;;;;;;;10.20;99.90;;;;;;5053468;28;19959;-69
2022/04/05 05:49:11;;;;;;;;;;;10.20;99.90;;;;;;5052961;28;19928;-70
2022/04/05 05:51:37;;;;;;;;;;;10.30;99.90;;;;;;5053256;28;19911;-71
2022/04/05 05:54:02;;;;;;;;;;;10.30;99.90;;;;;;5052937;28;19947;-71
2022/04/05 05:56:28;;;;;;;;;;;10.30;99.90;;;;;;5052945;28;19971;-71
2022/04/05 05:58:53;;;;;;;;;;;10.30;99.90;;;;;;5037541;28;19905;-71
2022/04/05 06:01:19;;;;;;;;;;;10.30;99.90;;;;;;5056875;28;19911;-69
2022/04/05 06:03:46;;;;;;;;;;;10.30;99.90;;;;;;5056619;28;20264;-71
2022/04/05 06:06:11;;;;;;;;;;;10.30;99.90;;;;;;5056778;28;20007;-70
2022/04/05 06:08:37;;;;;;;;;;;10.40;99.90;;;;;;5056437;28;20424;-70
2022/04/05 06:11:02;;;;;;;;;;;10.40;99.90;;;;;;5056703;28;19955;-70
2022/04/05 06:13:28;;;;;;;;;;;10.40;99.90;;;;;;5056396;28;19991;-69
2022/04/05 06:15:53;;;;;;;;;;;10.50;99.90;;;;;;5056569;28;19928;-69
2022/04/05 06:18:19;;;;;;;;;;;10.40;99.90;;;;;;5056294;28;19912;-72
2022/04/05 06:20:44;;;;;;;;;;;10.40;99.90;;;;;;5056337;28;19904;-70
2022/04/05 06:23:10;;;;;;;;;;;10.50;99.90;;;;;;5056239;28;19924;-68
2022/04/05 06:25:37;;;;;;;;;;;10.60;99.90;;;;;;5056398;28;19951;-71
2022/04/05 06:28:04;;;;;;;;;;;10.60;99.90;;;;;;5056099;28;20374;-69
2022/04/05 06:30:32;;;;;;;;;;;10.70;99.90;;;;;;5056665;28;19904;-70
2022/04/05 06:33:04;;;;;;;;;;;10.70;99.90;;;;;;5056307;28;20282;-71
2022/04/05 06:35:30;;;;;;;;;;;10.70;99.90;;;;;;5056517;28;19931;-70
2022/04/05 06:37:56;;;;;;;;;;;10.80;99.90;;;;;;5055977;28;19904;-68
2022/04/05 06:40:21;;;;;;;;;;;10.80;99.90;;;;;;5038031;28;19909;-68
2022/04/05 06:42:47;;;;;;;;;;;10.80;99.90;;;;;;5055830;28;20397;-69
2022/04/05 06:45:13;;;;;;;;;;;11.00;99.90;;;;;;5055778;28;19909;-73
2022/04/05 06:47:39;;;;;;;;;;;11.00;99.90;;;;;;5056179;28;19908;-70
2022/04/05 06:50:07;;;;;;;;;;;11.20;99.90;;;;;;5055667;28;19954;-70
2022/04/05 06:52:33;;;;;;;;;;;11.30;99.90;;;;;;5055633;28;19909;-71
2022/04/05 06:54:59;;;;;;;;;;;11.40;99.90;;;;;;5055819;28;20263;-70
2022/04/05 06:57:24;;;;;;;;;;;11.60;99.90;;;;;;5055840;28;19912;-72
2022/04/05 06:59:50;;;;;;;;;;;11.80;99.90;;;;;;5055780;28;19905;-71
2022/04/05 07:02:15;;;;;;;;;;;11.90;99.90;;;;;;5056014;28;19959;-72
2022/04/05 07:04:41;;;;;;;;;;;12.00;99.90;;;;;;5055288;28;20332;-71
2022/04/05 07:07:06;;;;;;;;;;;12.00;99.90;;;;;;5055325;28;19999;-71
2022/04/05 07:09:32;;;;;;;;;;;12.10;99.90;;;;;;5054638;28;19908;-70
2022/04/05 07:11:57;;;;;;;;;;;12.20;99.90;;;;;;5055322;28;19947;-70
2022/04/05 07:14:23;;;;;;;;;;;12.10;99.90;;;;;;5055175;28;20392;-69
2022/04/05 07:16:48;;;;;;;;;;;12.10;99.90;;;;;;5055466;28;19904;-70
2022/04/05 07:19:14;;;;;;;;;;;12.00;99.90;;;;;;5055179;28;19940;-69
2022/04/05 07:21:39;;;;;;;;;;;11.90;99.90;;;;;;5055356;28;19928;-69
2022/04/05 07:24:05;;;;;;;;;;;11.80;99.90;;;;;;5054839;28;19924;-70
2022/04/05 07:26:30;;;;;;;;;;;11.80;99.90;;;;;;5054964;28;19909;-68
2022/04/05 07:28:56;;;;;;;;;;;11.70;99.90;;;;;;5055270;28;19905;-70
2022/04/05 07:31:21;;;;;;;;;;;11.70;99.90;;;;;;5054908;28;19916;-70
2022/04/05 07:33:47;;;;;;;;;;;11.80;99.90;;;;;;5055088;28;19939;-72
2022/04/05 07:36:13;;;;;;;;;;;12.10;99.90;;;;;;5054818;28;19905;-70
2022/04/05 07:38:38;;;;;;;;;;;12.50;99.90;;;;;;5054744;28;19996;-70
2022/04/05 07:41:04;;;;;;;;;;;13.20;99.90;;;;;;5054598;28;20295;-70
2022/04/05 07:43:29;;;;;;;;;;;14.20;99.90;;;;;;5054671;28;20385;-69
2022/04/05 07:45:56;;;;;;;;;;;15.30;99.90;;;;;;5054824;28;19908;-70
2022/04/05 07:48:25;;;;;;;;;;;16.10;99.90;;;;;;5054589;28;19904;-71
2022/04/05 07:50:51;;;;;;;;;;;16.60;99.90;;;;;;5054578;28;19995;-70
2022/04/05 07:53:17;;;;;;;;;;;16.30;99.90;;;;;;5054482;28;19995;-69
2022/04/05 07:55:43;;;;;;;;;;;16.00;99.90;;;;;;5054721;28;20389;-70
2022/04/05 07:58:08;;;;;;;;;;;15.80;99.90;;;;;;5054329;28;19904;-71
2022/04/05 08:00:34;;;;;;;;;;;15.50;99.90;;;;;;5054337;28;19966;-70
2022/04/05 08:03:00;;;;;;;;;;;15.10;99.90;;;;;;5054398;28;19912;-69
2022/04/05 08:05:27;;;;;;;;;;;14.60;99.90;;;;;;5054495;28;19954;-71
2022/04/05 08:07:53;;;;;;;;;;;14.30;99.90;;;;;;5054473;28;19938;-70
2022/04/05 08:10:19;;;;;;;;;;;14.10;99.90;;;;;;5054257;28;19905;-71
2022/04/05 08:12:45;;;;;;;;;;;14.10;99.90;;;;;;5054146;28;19911;-69
2022/04/05 08:15:12;;;;;;;;;;;14.30;99.90;;;;;;5054281;28;19905;-70
2022/04/05 08:17:38;;;;;;;;;;;14.40;99.90;;;;;;5054642;28;19905;-70
2022/04/05 08:20:05;;;;;;;;;;;14.60;99.90;;;;;;5054005;28;19911;-71
2022/04/05 08:22:30;;;;;;;;;;;14.50;99.90;;;;;;5054172;28;20003;-69
2022/04/05 08:24:56;;;;;;;;;;;14.30;99.90;;;;;;5054247;28;20361;-70
2022/04/05 08:27:21;;;;;;;;;;;14.10;99.90;;;;;;5054139;28;19966;-70
2022/04/05 08:29:47;;;;;;;;;;;14.00;99.90;;;;;;5053896;28;20008;-71
2022/04/05 08:32:12;;;;;;;;;;;13.80;99.90;;;;;;5053851;28;19905;-69
2022/04/05 08:34:41;;;;;;;;;;;13.60;99.90;;;;;;5053788;28;20444;-69
2022/04/05 08:37:08;;;;;;;;;;;13.50;99.90;;;;;;5053764;28;19905;-69
2022/04/05 08:39:36;;;;;;;;;;;13.60;99.90;;;;;;5053707;28;19958;-70
2022/04/05 08:42:03;;;;;;;;;;;13.50;99.90;;;;;;5054207;28;20417;-69
2022/04/05 08:44:29;;;;;;;;;;;13.30;99.90;;;;;;5035798;28;19905;-71
2022/04/05 08:46:54;;;;;;;;;;;13.30;99.90;;;;;;5053637;28;19909;-70
2022/04/05 08:49:21;;;;;;;;;;;13.30;99.90;;;;;;5053644;28;19970;-69
2022/04/05 08:51:47;;;;;;;;;;;13.60;99.90;;;;;;5053871;28;19905;-71
2022/04/05 08:54:12;;;;;;;;;;;13.70;99.90;;;;;;5053532;28;20034;-72
2022/04/05 08:56:39;;;;;;;;;;;13.60;99.90;;;;;;5053521;28;20294;-71
2022/04/05 08:59:04;;;;;;;;;;;13.40;99.90;;;;;;5053771;28;19904;-71
2022/04/05 09:01:30;;;;;;;;;;;13.30;99.90;;;;;;5053772;28;19911;-71
2022/04/05 09:03:58;;;;;;;;;;;13.20;99.90;;;;;;5053735;28;19905;-71
2022/04/05 09:06:28;;;;;;;;;;;13.10;99.90;;;;;;5053342;28;19909;-68
2022/04/05 09:08:57;;;;;;;;;;;13.00;99.90;;;;;;5053393;28;19904;-70
2022/04/05 09:11:27;;;;;;;;;;;13.10;99.90;;;;;;5053387;28;19955;-71
2022/04/05 09:13:59;;;;;;;;;;;13.30;99.90;;;;;;5053341;28;19935;-69
2022/04/05 09:16:32;;;;;;;;;;;13.60;99.90;;;;;;5053616;28;19913;-71
2022/04/05 09:18:59;;;;;;;;;;;13.90;99.90;;;;;;5053268;28;19904;-68
2022/04/05 09:21:25;;;;;;;;;;;13.90;99.90;;;;;;5053552;28;19912;-71
2022/04/05 09:23:52;;;;;;;;;;;13.90;99.90;;;;;;5052978;28;19917;-71
2022/04/05 09:26:18;;;;;;;;;;;13.80;99.90;;;;;;5053142;28;19908;-71
2022/04/05 09:28:45;;;;;;;;;;;13.50;99.90;;;;;;5053509;28;19905;-70
2022/04/05 09:31:15;;;;;;;;;;;13.30;99.90;;;;;;5053168;28;19928;-70
2022/04/05 09:34:00;;;;;;;;;;;13.20;99.90;;;;;;5055528;28;20279;-68
2022/04/05 09:36:32;;;;;;;;;;;13.10;99.90;;;;;;5057595;28;19904;-70
2022/04/05 09:39:08;;;;;;;;;;;13.20;99.90;;;;;;5057061;28;20385;-71
2022/04/05 09:41:33;;;;;;;;;;;13.30;99.90;;;;;;5057592;28;19904;-71
2022/04/05 09:44:00;;;;;;;;;;;13.10;99.90;;;;;;5056923;28;20263;-70
2022/04/05 09:46:28;;;;;;;;;;;13.10;99.90;;;;;;5057115;28;19995;-69
2022/04/05 09:49:04;;;;;;;;;;;13.00;99.90;;;;;;5057140;28;19912;-71
2022/04/05 09:51:34;;;;;;;;;;;13.10;99.90;;;;;;5056832;28;19905;-70
2022/04/05 09:53:59;;;;;;;;;;;13.10;99.90;;;;;;5057091;28;20267;-71
2022/04/05 09:56:34;;;;;;;;;;;13.00;99.90;;;;;;5056615;28;19954;-72
2022/04/05 09:59:04;;;;;;;;;;;13.00;99.90;;;;;;5056657;28;19904;-69
2022/04/05 10:01:30;;;;;;;;;;;13.00;99.90;;;;;;5057003;28;19954;-71
2022/04/05 10:03:57;;;;;;;;;;;13.10;99.90;;;;;;5056849;28;19971;-70
2022/04/05 10:06:23;;;;;;;;;;;13.20;99.90;;;;;;5056469;28;19909;-70
2022/04/05 10:08:49;;;;;;;;;;;13.20;99.90;;;;;;5056663;28;19931;-71
2022/04/05 10:11:14;;;;;;;;;;;13.30;99.90;;;;;;5056353;28;19908;-69
2022/04/05 10:13:40;;;;;;;;;;;13.40;99.90;;;;;;5056356;28;20267;-69
2022/04/05 10:16:07;;;;;;;;;;;13.60;99.90;;;;;;5056208;28;19904;-72
2022/04/05 10:18:33;;;;;;;;;;;13.60;99.90;;;;;;5056268;28;19908;-69
2022/04/05 10:21:00;;;;;;;;;;;13.70;99.90;;;;;;5056286;28;19930;-71
2022/04/05 10:23:26;;;;;;;;;;;13.70;99.90;;;;;;5051819;28;20007;-70
2022/04/05 10:25:52;;;;;;;;;;;13.70;99.90;;;;;;5076177;28;19951;-70
2022/04/05 10:28:19;;;;;;;;;;;13.60;99.90;;;;;;5076160;28;20038;-70
2022/04/05 10:30:50;;;;;;;;;;;13.60;99.90;;;;;;5076050;28;19905;-71
2022/04/05 10:33:28;;;;;;;;;;;13.50;99.90;;;;;;5076396;28;20353;-70
2022/04/05 10:35:58;;;;;;;;;;;13.30;99.90;;;;;;5076038;28;19909;-70
2022/04/05 10:38:24;;;;;;;;;;;13.20;99.90;;;;;;5075969;28;19927;-69
2022/04/05 10:41:08;;;;;;;;;;;13.10;99.90;;;;;;5075926;28;19904;-69
2022/04/05 10:43:34;;;;;;;;;;;13.10;99.90;;;;;;5076056;28;20392;-68
2022/04/05 10:45:59;;;;;;;;;;;13.30;99.90;;;;;;5076047;28;19904;-71
2022/04/05 10:48:27;;;;;;;;;;;13.80;99.90;;;;;;5076384;28;19999;-72
2022/04/05 10:51:02;;;;;;;;;;;14.20;99.90;;;;;;5075726;28;20297;-72
2022/04/05 10:53:35;;;;;;;;;;;14.70;99.90;;;;;;5075708;28;19911;-71
2022/04/05 10:56:03;;;;;;;;;;;15.00;99.90;;;;;;5075688;28;19947;-70
2022/04/05 10:58:32;;;;;;;;;;;15.20;99.90;;;;;;5075911;28;19904;-69
2022/04/05 11:01:24;;;;;;;;;;;15.40;99.90;;;;;;5075579;28;19951;-72
2022/04/05 11:04:08;;;;;;;;;;;15.20;99.90;;;;;;5072411;28;20392;-69
2022/04/05 11:06:52;;;;;;;;;;;14.90;99.90;;;;;;5075633;28;19915;-69
2022/04/05 11:09:25;;;;;;;;;;;15.20;99.90;;;;;;5075331;28;19908;-71
2022/04/05 11:11:51;;;;;;;;;;;15.60;99.90;;;;;;5075672;28;19908;-69
2022/04/05 11:14:35;;;;;;;;;;;15.90;99.90;;;;;;5075227;28;19908;-70
2022/04/05 11:17:05;;;;;;;;;;;16.30;99.90;;;;;;5075509;28;19911;-68
2022/04/05 11:19:31;;;;;;;;;;;16.90;99.90;;;;;;5075184;28;19911;-71
2022/04/05 11:22:02;;;;;;;;;;;17.50;99.90;;;;;;5075704;28;19911;-71
2022/04/05 11:24:46;;;;;;;;;;;18.40;99.90;;;;;;5057689;28;19943;-69
2022/04/05 11:27:28;;;;;;;;;;;19.80;99.90;;;;;;5054933;28;19909;-70
2022/04/05 11:30:12;;;;;;;;;;;20.50;99.90;;;;;;5055541;28;20414;-71
2022/04/05 11:32:37;;;;;;;;;;;20.40;99.90;;;;;;5055209;28;19928;-71
2022/04/05 11:35:03;;;;;;;;;;;19.80;99.90;;;;;;5055426;28;20355;-71
2022/04/05 11:37:32;;;;;;;;;;;19.10;99.90;;;;;;5054801;28;19904;-69
2022/04/05 11:40:00;;;;;;;;;;;18.40;99.90;;;;;;5054641;28;19928;-69
2022/04/05 11:42:25;;;;;;;;;;;17.90;99.90;;;;;;5054737;28;19905;-70
2022/04/05 11:44:52;;;;;;;;;;;17.80;99.90;;;;;;5054700;28;19912;-70
2022/04/05 11:47:19;;;;;;;;;;;17.90;99.90;;;;;;5054566;28;19909;-70
2022/04/05 11:49:44;;;;;;;;;;;18.40;99.90;;;;;;5054917;28;19995;-69
2022/04/05 11:52:10;;;;;;;;;;;18.60;99.90;;;;;;5054514;28;20432;-71
2022/04/05 11:56:00;;;;;;;;;;;18.60;99.90;;;;;;5055074;28;19943;-72
2022/04/05 11:57:21;;;;;;;;;;;18.70;99.90;;;;;;5053745;28;19904;-71
2022/04/05 11:59:46;;;;;;;;;;;19.40;99.90;;;;;;5054412;28;20263;-70
2022/04/05 12:02:12;;;;;;;;;;;20.10;99.90;;;;;;5054627;28;20010;-70
2022/04/05 12:04:37;;;;;;;;;;;20.90;99.90;;;;;;5054331;28;20286;-69
2022/04/05 12:07:03;;;;;;;;;;;21.40;99.90;;;;;;5054810;28;20365;-71
2022/04/05 12:09:30;;;;;;;;;;;21.60;99.90;;;;;;5054505;28;19911;-70
2022/04/05 12:11:55;;;;;;;;;;;21.30;99.90;;;;;;5054468;28;20278;-71
2022/04/05 12:14:24;;;;;;;;;;;20.90;99.90;;;;;;5054004;28;19905;-71
2022/04/05 12:16:52;;;;;;;;;;;20.80;99.90;;;;;;5054388;28;19908;-71
2022/04/05 12:19:19;;;;;;;;;;;20.10;99.90;;;;;;5054079;28;19904;-69
2022/04/05 12:21:44;;;;;;;;;;;19.50;99.90;;;;;;5054600;28;20317;-70
2022/04/05 12:24:10;;;;;;;;;;;19.20;99.90;;;;;;5053843;28;19917;-70
2022/04/05 12:26:35;;;;;;;;;;;19.20;99.90;;;;;;5053881;28;19955;-71
2022/04/05 12:29:01;;;;;;;;;;;19.60;99.90;;;;;;5054203;28;19947;-71
2022/04/05 12:31:30;;;;;;;;;;;19.70;99.90;;;;;;5053883;28;20358;-70
2022/04/05 12:33:56;;;;;;;;;;;19.90;99.90;;;;;;5053793;28;19905;-70
2022/04/05 12:36:22;;;;;;;;;;;20.60;99.90;;;;;;5053791;28;19905;-70
2022/04/05 12:38:48;;;;;;;;;;;20.90;99.90;;;;;;5054296;28;20438;-71
2022/04/05 12:41:15;;;;;;;;;;;20.70;99.90;;;;;;5053796;28;19943;-70
2022/04/05 12:43:40;;;;;;;;;;;20.40;99.90;;;;;;5053961;28;19908;-69
2022/04/05 12:46:13;;;;;;;;;;;20.00;99.90;;;;;;5053891;28;19904;-71
2022/04/05 12:48:39;;;;;;;;;;;19.60;99.90;;;;;;5053891;28;19905;-70
2022/04/05 12:51:05;;;;;;;;;;;19.70;99.90;;;;;;5053628;28;19931;-71
2022/04/05 12:53:35;;;;;;;;;;;20.00;99.90;;;;;;5035681;28;19905;-69
2022/04/05 12:56:02;;;;;;;;;;;20.00;99.90;;;;;;5053844;28;20322;-71
2022/04/05 12:58:34;;;;;;;;;;;19.70;99.90;;;;;;5053551;28;20003;-69
2022/04/05 13:01:01;;;;;;;;;;;19.50;99.90;;;;;;5053524;28;19905;-70
2022/04/05 13:03:31;;;;;;;;;;;19.30;99.90;;;;;;5054000;28;19905;-71
2022/04/05 13:08:40;;;;;;;;;;;19.10;99.90;;;;;;5055978;28;19911;-71
2022/04/05 13:11:29;;;;;;;;;;;19.30;99.90;;;;;;5057608;28;19999;-70
2022/04/05 13:14:08;;;;;;;;;;;19.50;99.90;;;;;;5057887;28;19904;-71
2022/04/05 13:16:34;;;;;;;;;;;19.90;99.90;;;;;;5057467;28;20370;-71
2022/04/05 13:19:11;;;;;;;;;;;20.20;99.90;;;;;;5057362;28;19911;-71
2022/04/05 13:21:56;;;;;;;;;;;20.10;99.90;;;;;;5057879;28;19928;-70
2022/04/05 13:24:25;;;;;;;;;;;20.10;99.90;;;;;;5057180;28;20386;-70
2022/04/05 13:26:52;;;;;;;;;;;20.00;99.90;;;;;;5057102;28;19909;-69
2022/04/05 13:29:17;;;;;;;;;;;20.10;99.90;;;;;;5056983;28;19999;-70
2022/04/05 13:31:55;;;;;;;;;;;20.50;99.90;;;;;;5057226;28;19952;-71
2022/04/05 13:34:23;;;;;;;;;;;20.90;99.90;;;;;;5057188;28;19905;-70
2022/04/05 13:36:50;;;;;;;;;;;21.20;99.90;;;;;;5057110;28;20373;-71
2022/04/05 13:39:15;;;;;;;;;;;21.20;99.90;;;;;;5057325;28;19904;-71
2022/04/05 13:41:41;;;;;;;;;;;21.10;99.90;;;;;;5057293;28;19905;-71
2022/04/05 13:44:08;;;;;;;;;;;21.30;99.90;;;;;;5057006;28;19904;-70
2022/04/05 13:46:35;;;;;;;;;;;21.10;99.90;;;;;;5056891;28;20000;-70
2022/04/05 13:49:06;;;;;;;;;;;21.00;99.90;;;;;;5056879;28;19912;-70
2022/04/05 13:51:32;;;;;;;;;;;21.00;99.80;;;;;;5056869;28;19939;-71
2022/04/05 13:53:57;;;;;;;;;;;20.80;99.90;;;;;;5057094;28;19947;-71
2022/04/05 13:56:23;;;;;;;;;;;20.10;99.90;;;;;;5047396;28;19966;-72
2022/04/05 13:58:48;;;;;;;;;;;19.30;99.90;;;;;;5042574;28;20373;-72
2022/04/05 14:01:14;;;;;;;;;;;18.80;99.90;;;;;;5039506;28;19990;-70
2022/04/05 14:03:39;;;;;;;;;;;18.80;99.90;;;;;;5056510;28;20378;-72
2022/04/05 14:06:05;;;;;;;;;;;19.00;99.90;;;;;;5056702;28;19927;-71
2022/04/05 14:08:33;;;;;;;;;;;19.20;99.90;;;;;;5056326;28;19983;-72
2022/04/05 14:10:59;;;;;;;;;;;19.60;99.90;;;;;;5056488;28;19905;-70
2022/04/05 14:13:24;;;;;;;;;;;19.60;99.90;;;;;;5057035;28;19912;-71
2022/04/05 14:15:50;;;;;;;;;;;19.60;99.90;;;;;;5056389;28;19975;-72
2022/04/05 14:18:15;;;;;;;;;;;19.70;99.90;;;;;;5056236;28;19905;-71
2022/04/05 14:20:41;;;;;;;;;;;19.90;99.90;;;;;;5054851;28;20428;-69